JBU7532 PHOG-KSAN
Flight info
| Callsign | JBU7532 |
|---|---|
| Flight time | N/A |
| Altitude | 37000 |
| Route | CLUTS CEBEN R465 CIVIT R585 GITLE ADUMM GALIP AUDIA C1155 MQO LAX COMIX2 |
| Aircraft | A20N/M-SDE2E3FGHIRWXY/LB1 |
Departure
| Time | 2026-04-24 01:18 |
|---|---|
| Airport | Kahului International Airport (PHOG) |
Arrival
| Time | N/A |
|---|---|
| Airport | San Diego International Airport (KSAN) |
| Time | Latitude | Longitude | Altitude | Speed | Heading |
|---|---|---|---|---|---|
| 2026-04-24 01:02 | 20.89389 | -156.43592 | 27 ft | 0 kts | 316° |
| 2026-04-24 01:11 | 20.89376 | -156.43579 | 48 ft | 4 kts | 316° |
| 2026-04-24 01:12 | 20.89355 | -156.43557 | 51 ft | 4 kts | 314° |
| 2026-04-24 01:12 | 20.89338 | -156.43533 | 50 ft | 4 kts | 297° |
| 2026-04-24 01:12 | 20.89329 | -156.43504 | 45 ft | 4 kts | 266° |
| 2026-04-24 01:12 | 20.89339 | -156.43478 | 48 ft | 2 kts | 217° |
| 2026-04-24 01:13 | 20.89340 | -156.43478 | 48 ft | 0 kts | 216° |
| 2026-04-24 01:14 | 20.89298 | -156.43509 | 47 ft | 14 kts | 214° |
| 2026-04-24 01:14 | 20.89203 | -156.43583 | 52 ft | 19 kts | 212° |
| 2026-04-24 01:14 | 20.89137 | -156.43626 | 52 ft | 0 kts | 212° |
| 2026-04-24 01:15 | 20.89119 | -156.43642 | 53 ft | 8 kts | 223° |
| 2026-04-24 01:15 | 20.89061 | -156.43682 | 60 ft | 12 kts | 208° |
| 2026-04-24 01:15 | 20.88979 | -156.43698 | 59 ft | 9 kts | 179° |
| 2026-04-24 01:15 | 20.88996 | -156.43699 | 58 ft | 7 kts | 170° |
| 2026-04-24 01:16 | 20.89053 | -156.43720 | 54 ft | 4 kts | 157° |
| 2026-04-24 01:16 | 20.89056 | -156.43721 | 54 ft | 0 kts | 157° |
| 2026-04-24 01:16 | 20.88980 | -156.43679 | 57 ft | 26 kts | 135° |
| 2026-04-24 01:16 | 20.88950 | -156.43593 | 56 ft | 2 kts | 94° |
| 2026-04-24 01:17 | 20.88948 | -156.43637 | 59 ft | 8 kts | 75° |
| 2026-04-24 01:17 | 20.89046 | -156.43541 | 55 ft | 59 kts | 40° |
| 2026-04-24 01:17 | 20.89578 | -156.43143 | 44 ft | 125 kts | 34° |
| 2026-04-24 01:17 | 20.90436 | -156.42510 | 66 ft | 174 kts | 31° |
| 2026-04-24 01:18 | 20.91455 | -156.41787 | 809 ft | 185 kts | 31° |
| 2026-04-24 01:18 | 20.92597 | -156.40981 | 1484 ft | 202 kts | 32° |
| 2026-04-24 01:18 | 20.93849 | -156.40168 | 2051 ft | 223 kts | 32° |
| 2026-04-24 01:18 | 20.95197 | -156.39303 | 2962 ft | 227 kts | 32° |
| 2026-04-24 01:19 | 20.96583 | -156.38435 | 3841 ft | 237 kts | 31° |
| 2026-04-24 01:19 | 20.98069 | -156.37509 | 4477 ft | 259 kts | 31° |
| 2026-04-24 01:19 | 20.99670 | -156.36508 | 4885 ft | 269 kts | 31° |
| 2026-04-24 01:19 | 21.01285 | -156.35493 | 5134 ft | 269 kts | 31° |
| 2026-04-24 01:20 | 21.02903 | -156.34473 | 5370 ft | 271 kts | 31° |
| 2026-04-24 01:20 | 21.04529 | -156.33446 | 5606 ft | 274 kts | 31° |
| 2026-04-24 01:20 | 21.06175 | -156.32401 | 5917 ft | 275 kts | 31° |
| 2026-04-24 01:20 | 21.07825 | -156.31349 | 6286 ft | 278 kts | 31° |
| 2026-04-24 01:21 | 21.09489 | -156.30283 | 6655 ft | 280 kts | 31° |
| 2026-04-24 01:21 | 21.11159 | -156.29207 | 7000 ft | 281 kts | 31° |
| 2026-04-24 01:21 | 21.12835 | -156.28122 | 7354 ft | 282 kts | 31° |
| 2026-04-24 01:21 | 21.14492 | -156.27044 | 7708 ft | 283 kts | 31° |
| 2026-04-24 01:22 | 21.16176 | -156.25942 | 8072 ft | 284 kts | 31° |
| 2026-04-24 01:22 | 21.17867 | -156.24828 | 8431 ft | 286 kts | 31° |
| 2026-04-24 01:22 | 21.19553 | -156.23711 | 8803 ft | 287 kts | 31° |
| 2026-04-24 01:22 | 21.21251 | -156.22579 | 9181 ft | 288 kts | 31° |
| 2026-04-24 01:23 | 21.22954 | -156.21438 | 9671 ft | 289 kts | 31° |
| 2026-04-24 01:23 | 21.24653 | -156.20292 | 10278 ft | 291 kts | 31° |
| 2026-04-24 01:23 | 21.25793 | -156.19514 | 10659 ft | 293 kts | 31° |
| 2026-04-24 01:23 | 21.27061 | -156.18642 | 11095 ft | 292 kts | 31° |
| 2026-04-24 01:24 | 21.28485 | -156.17656 | 11591 ft | 298 kts | 31° |
| 2026-04-24 01:24 | 21.30267 | -156.16417 | 12208 ft | 311 kts | 31° |
| 2026-04-24 01:24 | 21.32111 | -156.15131 | 12833 ft | 322 kts | 31° |
| 2026-04-24 01:24 | 21.33995 | -156.13812 | 13453 ft | 332 kts | 31° |
| 2026-04-24 01:25 | 21.35962 | -156.12427 | 14088 ft | 335 kts | 31° |
| 2026-04-24 01:25 | 21.37888 | -156.11062 | 14654 ft | 338 kts | 31° |
| 2026-04-24 01:25 | 21.39850 | -156.09669 | 15244 ft | 341 kts | 31° |
| 2026-04-24 01:25 | 21.41836 | -156.08255 | 15794 ft | 344 kts | 31° |
| 2026-04-24 01:26 | 21.43831 | -156.06830 | 16016 ft | 346 kts | 31° |
| 2026-04-24 01:26 | 21.45834 | -156.05398 | 16080 ft | 346 kts | 31° |
| 2026-04-24 01:26 | 21.47835 | -156.03967 | 16089 ft | 346 kts | 31° |
| 2026-04-24 01:26 | 21.49834 | -156.02535 | 16089 ft | 346 kts | 31° |
| 2026-04-24 01:27 | 21.51833 | -156.01104 | 16092 ft | 346 kts | 31° |
| 2026-04-24 01:27 | 21.53837 | -155.99670 | 16089 ft | 346 kts | 31° |
| 2026-04-24 01:27 | 21.55843 | -155.98234 | 16088 ft | 346 kts | 31° |
| 2026-04-24 01:27 | 21.57842 | -155.96802 | 16087 ft | 346 kts | 31° |
| 2026-04-24 01:28 | 21.59848 | -155.95365 | 16086 ft | 346 kts | 31° |
| 2026-04-24 01:28 | 21.61845 | -155.93934 | 16087 ft | 346 kts | 31° |
| 2026-04-24 01:28 | 21.63852 | -155.92494 | 16085 ft | 346 kts | 31° |
| 2026-04-24 01:28 | 21.65850 | -155.91059 | 16088 ft | 346 kts | 31° |
| 2026-04-24 01:29 | 21.67825 | -155.89638 | 16089 ft | 346 kts | 31° |
| 2026-04-24 01:29 | 21.69848 | -155.88182 | 16087 ft | 346 kts | 31° |
| 2026-04-24 01:29 | 21.71822 | -155.86760 | 16087 ft | 346 kts | 31° |
| 2026-04-24 01:29 | 21.73819 | -155.85321 | 16090 ft | 346 kts | 31° |
| 2026-04-24 01:30 | 21.75824 | -155.83874 | 16092 ft | 346 kts | 31° |
| 2026-04-24 01:30 | 21.77825 | -155.82433 | 16092 ft | 346 kts | 31° |
| 2026-04-24 01:30 | 21.79825 | -155.80990 | 16102 ft | 346 kts | 31° |
| 2026-04-24 01:30 | 21.81847 | -155.79532 | 16383 ft | 357 kts | 31° |
| 2026-04-24 01:31 | 21.83928 | -155.78035 | 17003 ft | 361 kts | 31° |
| 2026-04-24 01:31 | 21.86018 | -155.76529 | 17874 ft | 360 kts | 31° |
| 2026-04-24 01:31 | 21.88094 | -155.75030 | 18725 ft | 359 kts | 31° |
| 2026-04-24 01:31 | 21.90158 | -155.73537 | 19523 ft | 356 kts | 31° |
| 2026-04-24 01:32 | 21.92209 | -155.72052 | 20341 ft | 354 kts | 31° |
| 2026-04-24 01:32 | 21.94237 | -155.70581 | 21178 ft | 350 kts | 31° |
| 2026-04-24 01:32 | 21.96243 | -155.69124 | 22051 ft | 346 kts | 31° |
| 2026-04-24 01:32 | 21.98222 | -155.67683 | 22939 ft | 341 kts | 31° |
| 2026-04-24 01:33 | 22.00165 | -155.66266 | 23825 ft | 334 kts | 31° |
| 2026-04-24 01:33 | 22.02075 | -155.64866 | 24596 ft | 327 kts | 31° |
| 2026-04-24 01:33 | 22.03895 | -155.63518 | 25376 ft | 318 kts | 31° |
| 2026-04-24 01:33 | 22.05682 | -155.62176 | 26189 ft | 306 kts | 31° |
| 2026-04-24 01:34 | 22.07387 | -155.60880 | 26957 ft | 297 kts | 31° |
| 2026-04-24 01:34 | 22.09092 | -155.59574 | 27220 ft | 305 kts | 31° |
| 2026-04-24 01:34 | 22.10849 | -155.58229 | 27499 ft | 311 kts | 31° |
| 2026-04-24 01:34 | 22.12618 | -155.56873 | 27881 ft | 313 kts | 31° |
| 2026-04-24 01:35 | 22.14408 | -155.55496 | 28246 ft | 317 kts | 31° |
| 2026-04-24 01:35 | 22.16194 | -155.54122 | 28586 ft | 320 kts | 31° |
| 2026-04-24 01:35 | 22.18032 | -155.52704 | 28934 ft | 323 kts | 31° |
| 2026-04-24 01:35 | 22.19836 | -155.51311 | 29276 ft | 326 kts | 31° |
| 2026-04-24 01:36 | 22.21719 | -155.49854 | 29617 ft | 329 kts | 31° |
| 2026-04-24 01:36 | 22.23564 | -155.48426 | 29964 ft | 331 kts | 31° |
| 2026-04-24 01:36 | 22.25436 | -155.46975 | 30323 ft | 332 kts | 31° |
| 2026-04-24 01:36 | 22.27307 | -155.45513 | 30665 ft | 332 kts | 31° |
| 2026-04-24 01:37 | 22.29174 | -155.44043 | 30962 ft | 334 kts | 31° |
| 2026-04-24 01:37 | 22.31052 | -155.42556 | 31214 ft | 337 kts | 31° |
| 2026-04-24 01:37 | 22.32945 | -155.41049 | 31478 ft | 339 kts | 31° |
| 2026-04-24 01:37 | 22.34859 | -155.39516 | 31733 ft | 342 kts | 31° |
| 2026-04-24 01:38 | 22.36774 | -155.37975 | 31987 ft | 345 kts | 31° |
| 2026-04-24 01:38 | 22.38705 | -155.36415 | 32223 ft | 348 kts | 31° |
| 2026-04-24 01:38 | 22.40652 | -155.34834 | 32479 ft | 350 kts | 31° |
| 2026-04-24 01:38 | 22.42583 | -155.33259 | 32712 ft | 353 kts | 31° |
| 2026-04-24 01:39 | 22.44549 | -155.31646 | 32947 ft | 356 kts | 31° |
| 2026-04-24 01:39 | 22.46534 | -155.30014 | 33183 ft | 358 kts | 31° |
| 2026-04-24 01:39 | 22.48526 | -155.28368 | 33411 ft | 361 kts | 31° |
| 2026-04-24 01:39 | 22.50509 | -155.26725 | 33620 ft | 364 kts | 31° |
| 2026-04-24 01:40 | 22.52531 | -155.25042 | 33847 ft | 366 kts | 31° |
| 2026-04-24 01:40 | 22.54552 | -155.23355 | 34054 ft | 369 kts | 31° |
| 2026-04-24 01:40 | 22.56591 | -155.21648 | 34250 ft | 371 kts | 31° |
| 2026-04-24 01:40 | 22.58635 | -155.19931 | 34446 ft | 373 kts | 32° |
| 2026-04-24 01:41 | 22.60696 | -155.18197 | 34629 ft | 375 kts | 31° |
| 2026-04-24 01:41 | 22.62751 | -155.16464 | 34822 ft | 376 kts | 31° |
| 2026-04-24 01:41 | 22.64828 | -155.14709 | 34995 ft | 378 kts | 32° |
| 2026-04-24 01:41 | 22.66882 | -155.12971 | 35175 ft | 380 kts | 32° |
| 2026-04-24 01:42 | 22.68967 | -155.11204 | 35344 ft | 382 kts | 31° |
| 2026-04-24 01:42 | 22.71069 | -155.09420 | 35524 ft | 383 kts | 31° |
| 2026-04-24 01:42 | 22.73177 | -155.07627 | 35703 ft | 385 kts | 32° |
| 2026-04-24 01:42 | 22.75289 | -155.05829 | 35872 ft | 386 kts | 31° |
| 2026-04-24 01:43 | 22.77382 | -155.04043 | 36030 ft | 388 kts | 32° |
| 2026-04-24 01:43 | 22.79517 | -155.02218 | 36217 ft | 390 kts | 32° |
| 2026-04-24 01:43 | 22.81658 | -155.00386 | 36375 ft | 391 kts | 32° |
| 2026-04-24 01:43 | 22.83772 | -154.98573 | 36536 ft | 393 kts | 32° |
| 2026-04-24 01:44 | 22.85925 | -154.96723 | 36695 ft | 394 kts | 32° |
| 2026-04-24 01:44 | 22.88076 | -154.94872 | 36854 ft | 396 kts | 32° |
| 2026-04-24 01:44 | 22.90242 | -154.93005 | 37007 ft | 397 kts | 32° |
| 2026-04-24 01:45 | 22.94625 | -154.89223 | 37100 ft | 407 kts | 32° |
| 2026-04-24 01:45 | 22.99046 | -154.85416 | 37109 ft | 407 kts | 32° |
| 2026-04-24 01:46 | 23.03484 | -154.81583 | 37103 ft | 407 kts | 32° |
| 2026-04-24 01:46 | 23.07750 | -154.77892 | 37099 ft | 407 kts | 32° |
| 2026-04-24 01:47 | 23.12196 | -154.74039 | 37097 ft | 413 kts | 32° |
| 2026-04-24 01:47 | 23.16769 | -154.70098 | 37100 ft | 426 kts | 32° |
| 2026-04-24 01:48 | 23.21491 | -154.66049 | 37099 ft | 439 kts | 32° |
| 2026-04-24 01:48 | 23.26374 | -154.61885 | 37097 ft | 452 kts | 32° |
| 2026-04-24 01:49 | 23.31411 | -154.57614 | 37108 ft | 465 kts | 32° |
| 2026-04-24 01:49 | 23.36549 | -154.53278 | 37105 ft | 477 kts | 32° |
| 2026-04-24 01:50 | 23.41881 | -154.48796 | 37103 ft | 487 kts | 32° |
| 2026-04-24 01:50 | 23.47251 | -154.44284 | 37098 ft | 487 kts | 32° |
| 2026-04-24 01:51 | 23.52621 | -154.39765 | 37101 ft | 487 kts | 32° |
| 2026-04-24 01:51 | 23.57952 | -154.35275 | 37098 ft | 487 kts | 32° |
| 2026-04-24 01:52 | 23.61545 | -154.32247 | 37104 ft | 487 kts | 32° |
| 2026-04-24 01:53 | 23.73735 | -154.21957 | 37106 ft | 486 kts | 32° |
| 2026-04-24 01:53 | 23.79083 | -154.17435 | 37102 ft | 486 kts | 32° |
| 2026-04-24 01:54 | 23.84395 | -154.12880 | 37101 ft | 490 kts | 37° |
| 2026-04-24 01:54 | 23.86722 | -154.10133 | 37104 ft | 498 kts | 48° |
| 2026-04-24 01:54 | 23.88560 | -154.06884 | 37108 ft | 507 kts | 60° |
| 2026-04-24 01:54 | 23.89815 | -154.03263 | 37108 ft | 514 kts | 72° |
| 2026-04-24 01:55 | 23.90434 | -153.99398 | 37107 ft | 519 kts | 84° |
| 2026-04-24 01:55 | 23.90386 | -153.95449 | 37105 ft | 522 kts | 95° |
| 2026-04-24 01:55 | 23.89670 | -153.91559 | 37120 ft | 524 kts | 107° |
| 2026-04-24 01:55 | 23.88309 | -153.87868 | 37144 ft | 524 kts | 119° |
| 2026-04-24 01:56 | 23.86356 | -153.84523 | 37160 ft | 522 kts | 130° |
| 2026-04-24 01:56 | 23.81886 | -153.78376 | 37095 ft | 523 kts | 120° |
| 2026-04-24 01:56 | 23.80357 | -153.74772 | 37098 ft | 525 kts | 109° |
| 2026-04-24 01:57 | 23.79456 | -153.70919 | 37093 ft | 524 kts | 97° |
| 2026-04-24 01:57 | 23.79218 | -153.66959 | 37096 ft | 521 kts | 85° |
| 2026-04-24 01:57 | 23.79648 | -153.63050 | 37097 ft | 517 kts | 74° |
| 2026-04-24 01:58 | 23.80778 | -153.55294 | 37100 ft | 521 kts | 87° |
| 2026-04-24 01:58 | 23.80154 | -153.47666 | 37098 ft | 525 kts | 99° |
| 2026-04-24 01:59 | 23.79249 | -153.36186 | 37091 ft | 520 kts | 78° |
| 2026-04-24 01:59 | 23.80096 | -153.32377 | 37086 ft | 514 kts | 66° |
| 2026-04-24 01:59 | 23.81548 | -153.28879 | 37091 ft | 507 kts | 54° |
| 2026-04-24 02:00 | 23.83543 | -153.25736 | 37092 ft | 500 kts | 46° |
| 2026-04-24 02:00 | 23.87870 | -153.19754 | 37091 ft | 501 kts | 48° |
| 2026-04-24 02:01 | 23.91871 | -153.13499 | 37095 ft | 504 kts | 51° |
| 2026-04-24 02:01 | 23.95719 | -153.07088 | 37103 ft | 504 kts | 52° |
| 2026-04-24 02:02 | 23.99539 | -153.00660 | 36925 ft | 504 kts | 52° |
| 2026-04-24 02:02 | 24.01444 | -152.97454 | 36675 ft | 502 kts | 52° |
| 2026-04-24 02:02 | 24.03344 | -152.94255 | 36313 ft | 502 kts | 52° |
| 2026-04-24 02:02 | 24.05221 | -152.91095 | 35838 ft | 500 kts | 52° |
| 2026-04-24 02:03 | 24.08993 | -152.84740 | 35149 ft | 496 kts | 53° |
| 2026-04-24 02:03 | 24.12823 | -152.78284 | 35093 ft | 506 kts | 53° |
| 2026-04-24 02:04 | 24.16625 | -152.71860 | 35093 ft | 505 kts | 53° |
| 2026-04-24 02:04 | 24.20444 | -152.65398 | 35096 ft | 506 kts | 53° |
| 2026-04-24 02:05 | 24.24264 | -152.58926 | 35086 ft | 506 kts | 53° |
| 2026-04-24 02:05 | 24.28077 | -152.52459 | 35087 ft | 506 kts | 53° |
| 2026-04-24 02:06 | 24.31899 | -152.45969 | 35091 ft | 506 kts | 53° |
| 2026-04-24 02:06 | 24.35710 | -152.39489 | 35091 ft | 506 kts | 53° |
| 2026-04-24 02:07 | 24.39310 | -152.33358 | 35088 ft | 506 kts | 53° |
| 2026-04-24 02:07 | 24.43123 | -152.26858 | 35089 ft | 506 kts | 53° |
| 2026-04-24 02:08 | 24.46927 | -152.20363 | 35094 ft | 506 kts | 53° |
| 2026-04-24 02:08 | 24.50735 | -152.13852 | 35089 ft | 506 kts | 53° |
| 2026-04-24 02:09 | 24.54534 | -152.07349 | 35084 ft | 506 kts | 53° |
| 2026-04-24 02:09 | 24.58337 | -152.00828 | 35086 ft | 506 kts | 53° |
| 2026-04-24 02:10 | 24.62105 | -151.94359 | 35085 ft | 507 kts | 53° |
| 2026-04-24 02:10 | 24.65902 | -151.87834 | 35087 ft | 507 kts | 53° |
| 2026-04-24 02:11 | 24.69695 | -151.81305 | 35086 ft | 507 kts | 53° |
| 2026-04-24 02:11 | 24.73484 | -151.74774 | 35086 ft | 507 kts | 53° |
| 2026-04-24 02:12 | 24.77271 | -151.68239 | 35087 ft | 506 kts | 53° |
| 2026-04-24 02:12 | 24.81032 | -151.61739 | 35083 ft | 506 kts | 53° |
| 2026-04-24 02:13 | 24.84812 | -151.55196 | 35083 ft | 506 kts | 53° |
| 2026-04-24 02:13 | 24.88585 | -151.48659 | 35086 ft | 506 kts | 53° |
| 2026-04-24 02:14 | 24.92363 | -151.42103 | 35081 ft | 506 kts | 53° |
| 2026-04-24 02:14 | 24.96132 | -151.35554 | 35079 ft | 507 kts | 53° |
| 2026-04-24 02:15 | 24.99906 | -151.28986 | 35077 ft | 507 kts | 53° |
| 2026-04-24 02:15 | 25.03671 | -151.22426 | 35077 ft | 507 kts | 53° |
| 2026-04-24 02:16 | 25.07407 | -151.15908 | 35076 ft | 507 kts | 53° |
| 2026-04-24 02:16 | 25.11168 | -151.09337 | 35074 ft | 507 kts | 53° |
| 2026-04-24 02:17 | 25.14932 | -151.02750 | 35074 ft | 507 kts | 53° |
| 2026-04-24 02:17 | 25.18686 | -150.96173 | 35074 ft | 507 kts | 53° |
| 2026-04-24 02:18 | 25.22439 | -150.89590 | 35072 ft | 507 kts | 53° |
| 2026-04-24 02:18 | 25.26171 | -150.83034 | 35069 ft | 507 kts | 53° |
| 2026-04-24 02:19 | 25.29921 | -150.76435 | 35070 ft | 507 kts | 53° |
| 2026-04-24 02:19 | 25.33669 | -150.69833 | 35070 ft | 507 kts | 53° |
| 2026-04-24 02:20 | 25.37411 | -150.63231 | 35066 ft | 507 kts | 54° |
| 2026-04-24 02:20 | 25.41156 | -150.56614 | 35067 ft | 507 kts | 54° |
| 2026-04-24 02:21 | 25.44870 | -150.50043 | 35064 ft | 507 kts | 54° |
| 2026-04-24 02:21 | 25.48610 | -150.43418 | 35066 ft | 507 kts | 54° |
| 2026-04-24 02:22 | 25.52338 | -150.36802 | 35067 ft | 507 kts | 54° |
| 2026-04-24 02:22 | 25.56073 | -150.30166 | 35063 ft | 507 kts | 54° |
| 2026-04-24 02:23 | 25.59774 | -150.23581 | 35062 ft | 508 kts | 54° |
| 2026-04-24 02:23 | 25.63512 | -150.16921 | 35063 ft | 508 kts | 54° |
| 2026-04-24 02:24 | 25.67237 | -150.10273 | 35063 ft | 508 kts | 54° |
| 2026-04-24 02:24 | 25.70955 | -150.03630 | 35067 ft | 507 kts | 54° |
| 2026-04-24 02:25 | 25.74674 | -149.96976 | 35055 ft | 507 kts | 54° |
| 2026-04-24 02:25 | 25.78346 | -149.90394 | 35061 ft | 506 kts | 54° |
| 2026-04-24 02:26 | 25.82061 | -149.83728 | 35063 ft | 507 kts | 54° |
| 2026-04-24 02:26 | 25.85766 | -149.77069 | 35059 ft | 507 kts | 54° |
| 2026-04-24 02:27 | 25.89462 | -149.70417 | 35060 ft | 507 kts | 54° |
| 2026-04-24 02:27 | 25.93164 | -149.63744 | 35060 ft | 507 kts | 54° |
| 2026-04-24 02:28 | 25.96857 | -149.57079 | 35062 ft | 506 kts | 54° |
| 2026-04-24 02:28 | 26.00543 | -149.50416 | 35059 ft | 506 kts | 54° |
| 2026-04-24 02:29 | 26.04205 | -149.43786 | 35058 ft | 506 kts | 54° |
| 2026-04-24 02:29 | 26.07886 | -149.37112 | 35062 ft | 506 kts | 54° |
| 2026-04-24 02:30 | 26.11567 | -149.30430 | 35062 ft | 506 kts | 54° |
| 2026-04-24 02:30 | 26.15248 | -149.23737 | 35060 ft | 506 kts | 54° |
| 2026-04-24 02:31 | 26.18913 | -149.17063 | 35060 ft | 505 kts | 54° |
| 2026-04-24 02:31 | 26.22551 | -149.10427 | 35059 ft | 505 kts | 54° |
| 2026-04-24 02:32 | 26.26207 | -149.03750 | 35060 ft | 505 kts | 54° |
| 2026-04-24 02:32 | 26.29857 | -148.97075 | 35064 ft | 504 kts | 54° |
| 2026-04-24 02:33 | 26.33503 | -148.90397 | 35063 ft | 504 kts | 54° |
| 2026-04-24 02:33 | 26.37147 | -148.83712 | 35064 ft | 504 kts | 54° |
| 2026-04-24 02:34 | 26.40785 | -148.77030 | 35064 ft | 504 kts | 54° |
| 2026-04-24 02:34 | 26.44414 | -148.70352 | 35064 ft | 504 kts | 54° |
| 2026-04-24 02:35 | 26.48024 | -148.63701 | 35064 ft | 504 kts | 54° |
| 2026-04-24 02:35 | 26.51652 | -148.57005 | 35064 ft | 504 kts | 54° |
| 2026-04-24 02:36 | 26.55277 | -148.50307 | 35062 ft | 504 kts | 54° |
| 2026-04-24 02:36 | 26.58900 | -148.43602 | 35062 ft | 504 kts | 54° |
| 2026-04-24 02:37 | 26.62514 | -148.36902 | 35072 ft | 503 kts | 54° |
| 2026-04-24 02:37 | 26.66094 | -148.30256 | 35062 ft | 502 kts | 54° |
| 2026-04-24 02:38 | 26.69694 | -148.23562 | 35067 ft | 502 kts | 54° |
| 2026-04-24 02:38 | 26.73289 | -148.16869 | 35061 ft | 501 kts | 54° |
| 2026-04-24 02:39 | 26.76875 | -148.10183 | 35067 ft | 501 kts | 54° |
| 2026-04-24 02:39 | 26.80456 | -148.03495 | 35065 ft | 501 kts | 54° |
| 2026-04-24 02:40 | 26.84029 | -147.96811 | 35062 ft | 500 kts | 54° |
| 2026-04-24 02:40 | 26.87595 | -147.90130 | 35063 ft | 500 kts | 54° |
| 2026-04-24 02:41 | 26.91135 | -147.83489 | 35062 ft | 499 kts | 54° |
| 2026-04-24 02:41 | 26.94687 | -147.76817 | 35063 ft | 498 kts | 54° |
| 2026-04-24 02:42 | 26.98232 | -147.70148 | 35059 ft | 498 kts | 54° |
| 2026-04-24 02:42 | 27.01770 | -147.63480 | 35060 ft | 498 kts | 54° |
| 2026-04-24 02:43 | 27.05304 | -147.56810 | 35059 ft | 497 kts | 55° |
| 2026-04-24 02:43 | 27.08811 | -147.50180 | 35064 ft | 497 kts | 55° |
| 2026-04-24 02:44 | 27.12331 | -147.43522 | 35063 ft | 497 kts | 55° |
| 2026-04-24 02:44 | 27.15854 | -147.36849 | 35057 ft | 496 kts | 55° |
| 2026-04-24 02:45 | 27.19369 | -147.30184 | 35060 ft | 496 kts | 55° |
| 2026-04-24 02:45 | 27.22879 | -147.23513 | 35059 ft | 495 kts | 56° |
| 2026-04-24 02:46 | 27.25973 | -147.16565 | 35060 ft | 498 kts | 60° |
| 2026-04-24 02:46 | 27.28978 | -147.09613 | 35060 ft | 497 kts | 60° |
| 2026-04-24 02:47 | 27.32003 | -147.02628 | 35055 ft | 497 kts | 60° |
| 2026-04-24 02:47 | 27.35019 | -146.95632 | 35054 ft | 497 kts | 60° |
| 2026-04-24 02:48 | 27.38029 | -146.88630 | 35056 ft | 497 kts | 60° |
| 2026-04-24 02:48 | 27.40989 | -146.81731 | 35053 ft | 498 kts | 60° |
| 2026-04-24 02:49 | 27.43996 | -146.74707 | 35053 ft | 498 kts | 60° |
| 2026-04-24 02:49 | 27.46997 | -146.67679 | 35052 ft | 498 kts | 60° |
| 2026-04-24 02:50 | 27.50000 | -146.60635 | 35053 ft | 499 kts | 60° |
| 2026-04-24 02:50 | 27.52995 | -146.53599 | 35054 ft | 498 kts | 61° |
| 2026-04-24 02:51 | 27.55970 | -146.46599 | 35058 ft | 498 kts | 61° |
| 2026-04-24 02:51 | 27.58953 | -146.39566 | 35060 ft | 498 kts | 61° |
| 2026-04-24 02:52 | 27.61939 | -146.32514 | 35060 ft | 498 kts | 61° |
| 2026-04-24 02:52 | 27.64922 | -146.25458 | 35052 ft | 498 kts | 61° |
| 2026-04-24 02:53 | 27.67879 | -146.18451 | 35052 ft | 498 kts | 62° |
| 2026-04-24 02:53 | 27.70850 | -146.11399 | 35052 ft | 498 kts | 62° |
| 2026-04-24 02:54 | 27.73824 | -146.04328 | 35053 ft | 498 kts | 62° |
| 2026-04-24 02:54 | 27.76789 | -145.97265 | 35054 ft | 498 kts | 62° |
| 2026-04-24 02:55 | 27.79754 | -145.90187 | 35054 ft | 498 kts | 62° |
| 2026-04-24 02:55 | 27.82686 | -145.83178 | 35058 ft | 497 kts | 62° |
| 2026-04-24 02:56 | 27.85639 | -145.76107 | 35057 ft | 497 kts | 62° |
| 2026-04-24 02:56 | 27.88579 | -145.69054 | 35062 ft | 496 kts | 63° |
| 2026-04-24 02:57 | 27.91515 | -145.61998 | 35064 ft | 496 kts | 63° |
| 2026-04-24 02:57 | 27.94446 | -145.54939 | 35064 ft | 495 kts | 63° |
| 2026-04-24 02:58 | 27.97340 | -145.47959 | 35066 ft | 494 kts | 63° |
| 2026-04-24 02:58 | 28.00256 | -145.40914 | 35068 ft | 494 kts | 63° |
| 2026-04-24 02:59 | 28.03164 | -145.33876 | 35075 ft | 494 kts | 63° |
| 2026-04-24 02:59 | 28.06073 | -145.26822 | 35075 ft | 494 kts | 63° |
| 2026-04-24 03:00 | 28.08961 | -145.19806 | 35077 ft | 496 kts | 64° |
| 2026-04-24 03:00 | 28.11880 | -145.12702 | 35083 ft | 498 kts | 64° |
| 2026-04-24 03:01 | 28.14800 | -145.05584 | 35083 ft | 499 kts | 64° |
| 2026-04-24 03:01 | 28.17720 | -144.98454 | 35086 ft | 500 kts | 64° |
| 2026-04-24 03:02 | 28.20629 | -144.91335 | 35091 ft | 501 kts | 64° |
| 2026-04-24 03:02 | 28.23561 | -144.84150 | 35094 ft | 503 kts | 64° |
| 2026-04-24 03:03 | 28.26489 | -144.76961 | 35092 ft | 502 kts | 64° |
| 2026-04-24 03:03 | 28.29414 | -144.69764 | 35096 ft | 503 kts | 64° |
| 2026-04-24 03:04 | 28.32324 | -144.62592 | 35100 ft | 502 kts | 64° |
| 2026-04-24 03:04 | 28.35244 | -144.55381 | 35107 ft | 503 kts | 65° |
| 2026-04-24 03:05 | 28.38152 | -144.48186 | 35108 ft | 502 kts | 65° |
| 2026-04-24 03:05 | 28.41057 | -144.40988 | 35110 ft | 501 kts | 65° |
| 2026-04-24 03:06 | 28.43938 | -144.33832 | 35112 ft | 501 kts | 65° |
| 2026-04-24 03:06 | 28.46832 | -144.26635 | 35123 ft | 500 kts | 65° |
| 2026-04-24 03:07 | 28.49721 | -144.19435 | 35122 ft | 500 kts | 65° |
| 2026-04-24 03:07 | 28.52598 | -144.12252 | 35125 ft | 500 kts | 65° |
| 2026-04-24 03:08 | 28.56897 | -144.01492 | 35125 ft | 500 kts | 65° |
| 2026-04-24 03:09 | 28.59765 | -143.94299 | 35128 ft | 500 kts | 66° |
| 2026-04-24 03:09 | 28.62638 | -143.87077 | 35127 ft | 500 kts | 66° |
| 2026-04-24 03:10 | 28.65504 | -143.79862 | 35130 ft | 500 kts | 66° |
| 2026-04-24 03:10 | 28.68362 | -143.72650 | 35136 ft | 500 kts | 66° |
| 2026-04-24 03:11 | 28.71218 | -143.65434 | 35137 ft | 500 kts | 66° |
| 2026-04-24 03:11 | 28.74044 | -143.58277 | 35134 ft | 499 kts | 66° |
| 2026-04-24 03:12 | 28.76892 | -143.51051 | 35139 ft | 500 kts | 66° |
| 2026-04-24 03:12 | 28.79737 | -143.43820 | 35143 ft | 500 kts | 66° |
| 2026-04-24 03:13 | 28.82563 | -143.36623 | 35145 ft | 501 kts | 66° |
| 2026-04-24 03:13 | 28.85407 | -143.29367 | 35147 ft | 501 kts | 66° |
| 2026-04-24 03:14 | 28.88250 | -143.22100 | 35146 ft | 502 kts | 66° |
| 2026-04-24 03:14 | 28.91092 | -143.14818 | 35150 ft | 502 kts | 66° |
| 2026-04-24 03:15 | 28.93929 | -143.07536 | 35151 ft | 502 kts | 66° |
| 2026-04-24 03:15 | 28.96762 | -143.00252 | 35154 ft | 502 kts | 66° |
| 2026-04-24 03:16 | 28.99572 | -142.93013 | 35158 ft | 502 kts | 66° |
| 2026-04-24 03:16 | 29.02400 | -142.85712 | 35162 ft | 503 kts | 66° |
| 2026-04-24 03:17 | 29.05226 | -142.78405 | 35161 ft | 504 kts | 67° |
| 2026-04-24 03:17 | 29.07580 | -142.72304 | 35163 ft | 505 kts | 67° |
| 2026-04-24 03:18 | 29.10419 | -142.64935 | 35168 ft | 506 kts | 67° |
| 2026-04-24 03:18 | 29.13714 | -142.56363 | 35166 ft | 507 kts | 67° |
| 2026-04-24 03:19 | 29.16068 | -142.50229 | 35161 ft | 507 kts | 67° |
| 2026-04-24 03:19 | 29.19376 | -142.41589 | 35169 ft | 508 kts | 67° |
| 2026-04-24 03:20 | 29.21728 | -142.35436 | 35171 ft | 509 kts | 67° |
| 2026-04-24 03:20 | 29.24568 | -142.27992 | 35173 ft | 510 kts | 67° |
| 2026-04-24 03:21 | 29.27865 | -142.19330 | 35173 ft | 511 kts | 67° |
| 2026-04-24 03:21 | 29.30705 | -142.11851 | 35178 ft | 512 kts | 67° |
| 2026-04-24 03:22 | 29.33066 | -142.05624 | 35177 ft | 513 kts | 67° |
| 2026-04-24 03:22 | 29.35908 | -141.98114 | 35184 ft | 514 kts | 67° |
| 2026-04-24 03:23 | 29.38755 | -141.90573 | 35178 ft | 515 kts | 67° |
| 2026-04-24 03:23 | 29.41597 | -141.83030 | 35175 ft | 516 kts | 67° |
| 2026-04-24 03:24 | 29.44438 | -141.75478 | 35182 ft | 516 kts | 67° |
| 2026-04-24 03:24 | 29.47265 | -141.67947 | 35184 ft | 518 kts | 67° |
| 2026-04-24 03:25 | 29.50105 | -141.60365 | 35179 ft | 518 kts | 67° |
| 2026-04-24 03:25 | 29.52951 | -141.52751 | 35181 ft | 519 kts | 67° |
| 2026-04-24 03:26 | 29.55797 | -141.45120 | 35197 ft | 520 kts | 67° |
| 2026-04-24 03:26 | 29.58638 | -141.37489 | 35187 ft | 520 kts | 68° |
| 2026-04-24 03:27 | 29.61462 | -141.29886 | 35191 ft | 521 kts | 68° |
| 2026-04-24 03:27 | 29.64299 | -141.22232 | 35190 ft | 522 kts | 68° |
| 2026-04-24 03:28 | 29.67141 | -141.14550 | 35193 ft | 522 kts | 68° |
| 2026-04-24 03:28 | 29.69980 | -141.06859 | 35193 ft | 523 kts | 68° |
| 2026-04-24 03:29 | 29.72819 | -140.99149 | 35194 ft | 523 kts | 68° |
| 2026-04-24 03:29 | 29.75616 | -140.91537 | 35197 ft | 523 kts | 68° |
| 2026-04-24 03:30 | 29.78457 | -140.83792 | 35196 ft | 524 kts | 68° |
| 2026-04-24 03:30 | 29.81296 | -140.76032 | 35196 ft | 524 kts | 68° |
| 2026-04-24 03:31 | 29.84120 | -140.68300 | 35195 ft | 525 kts | 68° |
| 2026-04-24 03:31 | 29.86949 | -140.60544 | 35202 ft | 525 kts | 68° |
| 2026-04-24 03:32 | 29.89757 | -140.52837 | 35199 ft | 525 kts | 68° |
| 2026-04-24 03:32 | 29.92581 | -140.45067 | 35201 ft | 526 kts | 68° |
| 2026-04-24 03:33 | 29.95332 | -140.37325 | 35204 ft | 526 kts | 71° |
| 2026-04-24 03:33 | 29.97894 | -140.29353 | 35201 ft | 526 kts | 70° |
| 2026-04-24 03:34 | 30.00498 | -140.21526 | 35205 ft | 526 kts | 70° |
| 2026-04-24 03:34 | 30.03102 | -140.13630 | 35204 ft | 527 kts | 70° |
| 2026-04-24 03:35 | 30.05675 | -140.05778 | 35208 ft | 527 kts | 70° |
| 2026-04-24 03:35 | 30.08261 | -139.97861 | 35212 ft | 527 kts | 70° |
| 2026-04-24 03:36 | 30.10858 | -139.89884 | 35211 ft | 527 kts | 70° |
| 2026-04-24 03:36 | 30.13429 | -139.81963 | 35211 ft | 527 kts | 70° |
| 2026-04-24 03:37 | 30.15984 | -139.74072 | 35213 ft | 527 kts | 70° |
| 2026-04-24 03:37 | 30.18546 | -139.66140 | 35211 ft | 527 kts | 70° |
| 2026-04-24 03:38 | 30.21102 | -139.58208 | 35213 ft | 527 kts | 70° |
| 2026-04-24 03:38 | 30.23659 | -139.50251 | 35213 ft | 528 kts | 70° |
| 2026-04-24 03:39 | 30.26210 | -139.42296 | 35213 ft | 528 kts | 70° |
| 2026-04-24 03:39 | 30.28763 | -139.34315 | 35216 ft | 528 kts | 70° |
| 2026-04-24 03:40 | 30.31290 | -139.26395 | 35216 ft | 528 kts | 70° |
| 2026-04-24 03:40 | 30.33833 | -139.18409 | 35213 ft | 529 kts | 70° |
| 2026-04-24 03:41 | 30.36371 | -139.10417 | 35216 ft | 529 kts | 70° |
| 2026-04-24 03:41 | 30.38907 | -139.02411 | 35216 ft | 530 kts | 70° |
| 2026-04-24 03:42 | 30.41437 | -138.94405 | 35217 ft | 530 kts | 70° |
| 2026-04-24 03:42 | 30.43969 | -138.86372 | 35221 ft | 530 kts | 70° |
| 2026-04-24 03:43 | 30.46475 | -138.78404 | 35221 ft | 530 kts | 70° |
| 2026-04-24 03:43 | 30.49000 | -138.70355 | 35224 ft | 531 kts | 70° |
| 2026-04-24 03:44 | 30.51517 | -138.62312 | 35222 ft | 531 kts | 71° |
| 2026-04-24 03:44 | 30.54036 | -138.54241 | 35222 ft | 532 kts | 71° |
| 2026-04-24 03:45 | 30.56546 | -138.46180 | 35227 ft | 532 kts | 71° |
| 2026-04-24 03:45 | 30.59042 | -138.38142 | 35225 ft | 533 kts | 71° |
| 2026-04-24 03:46 | 30.61550 | -138.30048 | 35228 ft | 533 kts | 71° |
| 2026-04-24 03:46 | 30.64052 | -138.21950 | 35228 ft | 533 kts | 71° |
| 2026-04-24 03:47 | 30.66547 | -138.13858 | 35228 ft | 533 kts | 71° |
| 2026-04-24 03:47 | 30.69039 | -138.05751 | 35229 ft | 533 kts | 71° |
| 2026-04-24 03:48 | 30.71528 | -137.97638 | 35230 ft | 533 kts | 71° |
| 2026-04-24 03:48 | 30.73997 | -137.89567 | 35224 ft | 534 kts | 70° |
| 2026-04-24 03:49 | 30.76481 | -137.81425 | 35227 ft | 534 kts | 70° |
| 2026-04-24 03:49 | 30.78959 | -137.73288 | 35231 ft | 534 kts | 70° |
| 2026-04-24 03:50 | 30.81434 | -137.65135 | 35229 ft | 534 kts | 70° |
| 2026-04-24 03:50 | 30.83872 | -137.57080 | 35235 ft | 535 kts | 70° |
| 2026-04-24 03:51 | 30.86339 | -137.48909 | 35235 ft | 535 kts | 70° |
| 2026-04-24 03:51 | 30.88194 | -137.42754 | 35235 ft | 535 kts | 70° |
| 2026-04-24 03:52 | 30.89625 | -137.37997 | 35235 ft | 535 kts | 70° |
| 2026-04-24 03:52 | 30.91908 | -137.30388 | 35234 ft | 534 kts | 70° |
| 2026-04-24 03:53 | 30.94353 | -137.22224 | 35236 ft | 534 kts | 70° |
| 2026-04-24 03:53 | 30.96797 | -137.14041 | 35237 ft | 535 kts | 70° |
| 2026-04-24 03:54 | 30.99221 | -137.05904 | 35235 ft | 534 kts | 70° |
| 2026-04-24 03:54 | 31.01658 | -136.97700 | 35236 ft | 534 kts | 70° |
| 2026-04-24 03:55 | 31.04086 | -136.89506 | 35238 ft | 534 kts | 70° |
| 2026-04-24 03:55 | 31.06516 | -136.81284 | 35235 ft | 535 kts | 70° |
| 2026-04-24 03:56 | 31.08919 | -136.73130 | 35237 ft | 535 kts | 70° |
| 2026-04-24 03:56 | 31.11331 | -136.64922 | 35235 ft | 535 kts | 70° |
| 2026-04-24 03:57 | 31.13742 | -136.56699 | 35235 ft | 535 kts | 70° |
| 2026-04-24 03:57 | 31.16154 | -136.48449 | 35239 ft | 536 kts | 70° |
| 2026-04-24 03:58 | 31.18561 | -136.40196 | 35238 ft | 537 kts | 70° |
| 2026-04-24 03:58 | 31.20963 | -136.31936 | 35238 ft | 537 kts | 70° |
| 2026-04-24 03:59 | 31.23362 | -136.23666 | 35237 ft | 538 kts | 70° |
| 2026-04-24 03:59 | 31.25749 | -136.15414 | 35246 ft | 538 kts | 70° |
| 2026-04-24 04:00 | 31.28150 | -136.07091 | 35238 ft | 539 kts | 71° |
| 2026-04-24 04:00 | 31.30542 | -135.98787 | 35260 ft | 533 kts | 72° |
| 2026-04-24 04:01 | 31.32922 | -135.90493 | 35242 ft | 541 kts | 71° |
| 2026-04-24 04:01 | 31.35293 | -135.82207 | 35239 ft | 540 kts | 71° |
| 2026-04-24 04:02 | 31.37672 | -135.73869 | 35243 ft | 540 kts | 71° |
| 2026-04-24 04:02 | 31.40050 | -135.65509 | 35239 ft | 540 kts | 71° |
| 2026-04-24 04:03 | 31.42419 | -135.57160 | 35243 ft | 540 kts | 71° |
| 2026-04-24 04:03 | 31.44771 | -135.48848 | 35248 ft | 540 kts | 71° |
| 2026-04-24 04:04 | 31.47146 | -135.40430 | 35246 ft | 541 kts | 71° |
| 2026-04-24 04:04 | 31.49488 | -135.32105 | 35242 ft | 541 kts | 71° |
| 2026-04-24 04:05 | 31.51844 | -135.23707 | 35248 ft | 541 kts | 71° |
| 2026-04-24 04:05 | 31.54192 | -135.15316 | 35247 ft | 541 kts | 71° |
| 2026-04-24 04:06 | 31.56533 | -135.06926 | 35247 ft | 541 kts | 71° |
| 2026-04-24 04:06 | 31.58858 | -134.98567 | 35248 ft | 541 kts | 71° |
| 2026-04-24 04:07 | 31.61192 | -134.90153 | 35247 ft | 541 kts | 71° |
| 2026-04-24 04:07 | 31.63517 | -134.81748 | 35252 ft | 541 kts | 71° |
| 2026-04-24 04:08 | 31.65837 | -134.73336 | 35252 ft | 541 kts | 71° |
| 2026-04-24 04:08 | 31.68143 | -134.64950 | 35251 ft | 541 kts | 71° |
| 2026-04-24 04:09 | 31.70446 | -134.56555 | 35250 ft | 541 kts | 71° |
| 2026-04-24 04:09 | 31.72743 | -134.48156 | 35246 ft | 541 kts | 71° |
| 2026-04-24 04:10 | 31.75040 | -134.39729 | 35252 ft | 541 kts | 71° |
| 2026-04-24 04:10 | 31.77332 | -134.31298 | 35253 ft | 540 kts | 71° |
| 2026-04-24 04:11 | 31.80754 | -134.18663 | 35260 ft | 541 kts | 71° |
| 2026-04-24 04:11 | 31.83031 | -134.10228 | 35253 ft | 540 kts | 71° |
| 2026-04-24 04:12 | 31.85292 | -134.01823 | 35255 ft | 541 kts | 71° |
| 2026-04-24 04:12 | 31.87560 | -133.93372 | 35257 ft | 540 kts | 71° |
| 2026-04-24 04:13 | 31.89807 | -133.84971 | 35258 ft | 540 kts | 71° |
| 2026-04-24 04:13 | 31.92064 | -133.76509 | 35258 ft | 540 kts | 71° |
| 2026-04-24 04:14 | 31.94310 | -133.68062 | 35254 ft | 540 kts | 71° |
| 2026-04-24 04:14 | 31.96541 | -133.59647 | 35258 ft | 540 kts | 71° |
| 2026-04-24 04:15 | 31.98777 | -133.51189 | 35254 ft | 540 kts | 71° |
| 2026-04-24 04:15 | 32.00992 | -133.42787 | 35262 ft | 540 kts | 71° |
| 2026-04-24 04:16 | 32.03215 | -133.34326 | 35257 ft | 540 kts | 71° |
| 2026-04-24 04:16 | 32.05433 | -133.25856 | 35262 ft | 540 kts | 71° |
| 2026-04-24 04:17 | 32.07647 | -133.17383 | 35257 ft | 540 kts | 71° |
| 2026-04-24 04:17 | 32.09855 | -133.08914 | 35260 ft | 539 kts | 71° |
| 2026-04-24 04:18 | 32.12057 | -133.00446 | 35287 ft | 544 kts | 71° |
| 2026-04-24 04:18 | 32.14292 | -132.91838 | 35254 ft | 548 kts | 71° |
| 2026-04-24 04:19 | 32.16534 | -132.83319 | 35253 ft | 546 kts | 66° |
| 2026-04-24 04:19 | 32.19870 | -132.75310 | 35258 ft | 543 kts | 58° |
| 2026-04-24 04:20 | 32.23423 | -132.67427 | 35254 ft | 543 kts | 58° |
| 2026-04-24 04:20 | 32.26935 | -132.59548 | 35259 ft | 544 kts | 58° |
| 2026-04-24 04:21 | 32.29855 | -132.52949 | 35258 ft | 544 kts | 58° |
| 2026-04-24 04:21 | 32.33358 | -132.45003 | 35258 ft | 545 kts | 58° |
| 2026-04-24 04:22 | 32.36864 | -132.37031 | 35258 ft | 546 kts | 58° |
| 2026-04-24 04:22 | 32.40369 | -132.29044 | 35264 ft | 546 kts | 58° |
| 2026-04-24 04:23 | 32.43846 | -132.21106 | 35260 ft | 547 kts | 58° |
| 2026-04-24 04:23 | 32.47350 | -132.13088 | 35263 ft | 547 kts | 58° |
| 2026-04-24 04:24 | 32.50853 | -132.05054 | 35260 ft | 548 kts | 58° |
| 2026-04-24 04:24 | 32.54354 | -131.97006 | 35260 ft | 549 kts | 58° |
| 2026-04-24 04:25 | 32.57834 | -131.88986 | 35260 ft | 549 kts | 58° |
| 2026-04-24 04:25 | 32.61329 | -131.80915 | 35259 ft | 549 kts | 58° |
| 2026-04-24 04:26 | 32.64813 | -131.72851 | 35258 ft | 549 kts | 58° |
| 2026-04-24 04:26 | 32.68275 | -131.64822 | 35266 ft | 549 kts | 58° |
| 2026-04-24 04:27 | 32.71750 | -131.56741 | 35255 ft | 548 kts | 59° |
| 2026-04-24 04:27 | 32.75221 | -131.48654 | 35259 ft | 548 kts | 59° |
| 2026-04-24 04:28 | 32.78663 | -131.40615 | 35258 ft | 547 kts | 59° |
| 2026-04-24 04:28 | 32.82107 | -131.32554 | 35256 ft | 546 kts | 59° |
| 2026-04-24 04:29 | 32.85530 | -131.24526 | 35253 ft | 545 kts | 59° |
| 2026-04-24 04:29 | 32.88954 | -131.16478 | 35257 ft | 544 kts | 59° |
| 2026-04-24 04:30 | 32.92373 | -131.08422 | 35256 ft | 543 kts | 60° |
| 2026-04-24 04:30 | 32.95756 | -131.00431 | 35259 ft | 542 kts | 60° |
| 2026-04-24 04:31 | 32.99149 | -130.92400 | 35259 ft | 542 kts | 60° |
| 2026-04-24 04:31 | 33.02517 | -130.84408 | 35257 ft | 541 kts | 60° |
| 2026-04-24 04:32 | 33.05884 | -130.76400 | 35258 ft | 539 kts | 60° |
| 2026-04-24 04:32 | 33.09237 | -130.68409 | 35258 ft | 538 kts | 60° |
| 2026-04-24 04:33 | 33.12578 | -130.60425 | 35258 ft | 537 kts | 61° |
| 2026-04-24 04:33 | 33.15892 | -130.52490 | 35255 ft | 536 kts | 61° |
| 2026-04-24 04:34 | 33.19228 | -130.44482 | 35253 ft | 535 kts | 61° |
| 2026-04-24 04:34 | 33.22538 | -130.36520 | 35257 ft | 535 kts | 61° |
| 2026-04-24 04:35 | 33.25824 | -130.28597 | 35254 ft | 534 kts | 62° |
| 2026-04-24 04:35 | 33.29117 | -130.20638 | 35256 ft | 534 kts | 62° |
| 2026-04-24 04:36 | 33.32394 | -130.12699 | 35256 ft | 533 kts | 62° |
| 2026-04-24 04:36 | 33.35673 | -130.04739 | 35260 ft | 533 kts | 62° |
| 2026-04-24 04:37 | 33.38952 | -129.96757 | 35254 ft | 533 kts | 62° |
| 2026-04-24 04:37 | 33.42207 | -129.88818 | 35254 ft | 533 kts | 62° |
| 2026-04-24 04:38 | 33.45472 | -129.80837 | 35253 ft | 532 kts | 62° |
| 2026-04-24 04:38 | 33.48720 | -129.72877 | 35256 ft | 532 kts | 62° |
| 2026-04-24 04:39 | 33.51950 | -129.64944 | 35253 ft | 531 kts | 63° |
| 2026-04-24 04:39 | 33.55184 | -129.56983 | 35259 ft | 531 kts | 63° |
| 2026-04-24 04:40 | 33.58417 | -129.49004 | 35256 ft | 531 kts | 63° |
| 2026-04-24 04:40 | 33.61640 | -129.41032 | 35252 ft | 530 kts | 63° |
| 2026-04-24 04:41 | 33.64855 | -129.33063 | 35255 ft | 530 kts | 63° |
| 2026-04-24 04:41 | 33.68046 | -129.25133 | 35254 ft | 530 kts | 63° |
| 2026-04-24 04:42 | 33.71267 | -129.17111 | 35251 ft | 530 kts | 63° |
| 2026-04-24 04:42 | 33.74449 | -129.09167 | 35252 ft | 530 kts | 63° |
| 2026-04-24 04:43 | 33.77640 | -129.01179 | 35250 ft | 530 kts | 63° |
| 2026-04-24 04:43 | 33.80818 | -128.93209 | 35249 ft | 530 kts | 63° |
| 2026-04-24 04:44 | 33.83999 | -128.85222 | 35250 ft | 530 kts | 64° |
| 2026-04-24 04:44 | 33.86401 | -128.76895 | 35247 ft | 530 kts | 80° |
| 2026-04-24 04:45 | 33.86954 | -128.68060 | 35249 ft | 527 kts | 90° |
| 2026-04-24 04:45 | 33.87190 | -128.59259 | 35252 ft | 528 kts | 90° |
| 2026-04-24 04:46 | 33.87436 | -128.50403 | 35247 ft | 528 kts | 90° |
| 2026-04-24 04:46 | 33.87669 | -128.41555 | 35244 ft | 529 kts | 90° |
| 2026-04-24 04:47 | 33.87893 | -128.32703 | 35243 ft | 529 kts | 90° |
| 2026-04-24 04:47 | 33.88109 | -128.23887 | 35245 ft | 530 kts | 90° |
| 2026-04-24 04:48 | 33.88320 | -128.15012 | 35243 ft | 530 kts | 91° |
| 2026-04-24 04:48 | 33.88525 | -128.06122 | 35242 ft | 531 kts | 91° |
| 2026-04-24 04:49 | 33.88724 | -127.97215 | 35245 ft | 531 kts | 91° |
| 2026-04-24 04:49 | 33.88915 | -127.88376 | 35248 ft | 531 kts | 91° |
| 2026-04-24 04:50 | 33.89102 | -127.79468 | 35242 ft | 531 kts | 91° |
| 2026-04-24 04:50 | 33.89282 | -127.70542 | 35240 ft | 532 kts | 91° |
| 2026-04-24 04:51 | 33.89455 | -127.61647 | 35239 ft | 532 kts | 91° |
| 2026-04-24 04:51 | 33.89622 | -127.52777 | 35239 ft | 533 kts | 91° |
| 2026-04-24 04:52 | 33.89725 | -127.47111 | 35237 ft | 533 kts | 91° |
| 2026-04-24 04:52 | 33.89802 | -127.42817 | 35238 ft | 533 kts | 92° |
| 2026-04-24 04:53 | 33.89954 | -127.33891 | 35239 ft | 534 kts | 91° |
| 2026-04-24 04:53 | 33.90102 | -127.25009 | 35233 ft | 534 kts | 92° |
| 2026-04-24 04:54 | 33.90243 | -127.16068 | 35231 ft | 535 kts | 92° |
| 2026-04-24 04:54 | 33.90378 | -127.07125 | 35228 ft | 535 kts | 92° |
| 2026-04-24 04:55 | 33.90507 | -126.98150 | 35228 ft | 535 kts | 92° |
| 2026-04-24 04:55 | 33.90629 | -126.89182 | 35227 ft | 536 kts | 92° |
| 2026-04-24 04:56 | 33.90744 | -126.80233 | 35221 ft | 537 kts | 92° |
| 2026-04-24 04:56 | 33.90854 | -126.71250 | 35217 ft | 537 kts | 92° |
| 2026-04-24 04:57 | 33.90956 | -126.62256 | 35213 ft | 537 kts | 92° |
| 2026-04-24 04:57 | 33.91053 | -126.53258 | 35216 ft | 537 kts | 92° |
| 2026-04-24 04:58 | 33.91142 | -126.44319 | 35212 ft | 538 kts | 92° |
| 2026-04-24 04:58 | 33.91223 | -126.35565 | 35209 ft | 538 kts | 92° |
| 2026-04-24 04:59 | 33.91300 | -126.26556 | 35207 ft | 538 kts | 92° |